sensor_id;sensor_type;location;lat;lon;timestamp;P1;durP1;ratioP1;P2;durP2;ratioP2
19998;SDS011;10160;50.926;4.374;2023-09-12T00:00:02;29.75;;;17.38;;
19998;SDS011;10160;50.926;4.374;2023-09-12T00:02:34;30.40;;;16.50;;
19998;SDS011;10160;50.926;4.374;2023-09-12T00:04:59;32.28;;;17.92;;
19998;SDS011;10160;50.926;4.374;2023-09-12T00:07:25;29.25;;;17.00;;
19998;SDS011;10160;50.926;4.374;2023-09-12T00:09:51;31.52;;;18.42;;
19998;SDS011;10160;50.926;4.374;2023-09-12T00:12:16;34.30;;;19.73;;
19998;SDS011;10160;50.926;4.374;2023-09-12T00:14:42;39.05;;;20.25;;
19998;SDS011;10160;50.926;4.374;2023-09-12T00:17:08;36.85;;;19.77;;
19998;SDS011;10160;50.926;4.374;2023-09-12T00:19:34;33.78;;;17.55;;
19998;SDS011;10160;50.926;4.374;2023-09-12T00:22:00;33.72;;;19.20;;
19998;SDS011;10160;50.926;4.374;2023-09-12T00:24:25;35.30;;;19.63;;
19998;SDS011;10160;50.926;4.374;2023-09-12T00:26:51;37.03;;;21.00;;
19998;SDS011;10160;50.926;4.374;2023-09-12T00:29:17;38.70;;;20.08;;
19998;SDS011;10160;50.926;4.374;2023-09-12T00:31:42;39.80;;;21.48;;
19998;SDS011;10160;50.926;4.374;2023-09-12T00:34:08;37.13;;;19.83;;
19998;SDS011;10160;50.926;4.374;2023-09-12T00:36:33;38.53;;;20.17;;
19998;SDS011;10160;50.926;4.374;2023-09-12T00:38:59;37.35;;;21.60;;
19998;SDS011;10160;50.926;4.374;2023-09-12T00:41:25;40.65;;;21.65;;
19998;SDS011;10160;50.926;4.374;2023-09-12T00:43:50;39.72;;;21.67;;
19998;SDS011;10160;50.926;4.374;2023-09-12T00:46:19;42.05;;;21.98;;
19998;SDS011;10160;50.926;4.374;2023-09-12T00:48:48;39.13;;;21.48;;
19998;SDS011;10160;50.926;4.374;2023-09-12T00:51:15;37.70;;;22.65;;
19998;SDS011;10160;50.926;4.374;2023-09-12T00:53:44;44.08;;;24.27;;
19998;SDS011;10160;50.926;4.374;2023-09-12T00:56:10;44.42;;;22.50;;
19998;SDS011;10160;50.926;4.374;2023-09-12T00:58:36;45.47;;;23.42;;
19998;SDS011;10160;50.926;4.374;2023-09-12T01:01:02;44.15;;;23.80;;
19998;SDS011;10160;50.926;4.374;2023-09-12T01:03:29;46.05;;;23.13;;
19998;SDS011;10160;50.926;4.374;2023-09-12T01:05:55;47.67;;;24.77;;
19998;SDS011;10160;50.926;4.374;2023-09-12T01:08:24;44.50;;;23.48;;
19998;SDS011;10160;50.926;4.374;2023-09-12T01:10:50;43.55;;;24.15;;
19998;SDS011;10160;50.926;4.374;2023-09-12T01:13:18;44.50;;;25.38;;
19998;SDS011;10160;50.926;4.374;2023-09-12T01:15:44;47.15;;;25.77;;
19998;SDS011;10160;50.926;4.374;2023-09-12T01:18:10;42.30;;;22.85;;
19998;SDS011;10160;50.926;4.374;2023-09-12T01:20:36;41.08;;;23.45;;
19998;SDS011;10160;50.926;4.374;2023-09-12T01:29:14;35.15;;;20.92;;
19998;SDS011;10160;50.926;4.374;2023-09-12T01:31:41;39.80;;;21.45;;
19998;SDS011;10160;50.926;4.374;2023-09-12T01:34:11;39.97;;;21.75;;
19998;SDS011;10160;50.926;4.374;2023-09-12T01:36:37;37.67;;;22.63;;
19998;SDS011;10160;50.926;4.374;2023-09-12T01:39:03;38.70;;;22.13;;
19998;SDS011;10160;50.926;4.374;2023-09-12T01:41:29;39.00;;;22.50;;
19998;SDS011;10160;50.926;4.374;2023-09-12T01:43:59;38.45;;;23.10;;
19998;SDS011;10160;50.926;4.374;2023-09-12T01:46:26;43.63;;;23.23;;
19998;SDS011;10160;50.926;4.374;2023-09-12T01:48:53;39.83;;;22.15;;
19998;SDS011;10160;50.926;4.374;2023-09-12T01:51:20;46.35;;;24.35;;
19998;SDS011;10160;50.926;4.374;2023-09-12T01:53:47;43.50;;;24.77;;
19998;SDS011;10160;50.926;4.374;2023-09-12T01:56:14;45.72;;;25.70;;
19998;SDS011;10160;50.926;4.374;2023-09-12T01:58:40;48.60;;;25.38;;
19998;SDS011;10160;50.926;4.374;2023-09-12T02:01:06;48.53;;;27.15;;
19998;SDS011;10160;50.926;4.374;2023-09-12T02:03:31;47.75;;;26.45;;
19998;SDS011;10160;50.926;4.374;2023-09-12T02:05:57;44.83;;;25.58;;
19998;SDS011;10160;50.926;4.374;2023-09-12T02:08:23;44.83;;;25.50;;
19998;SDS011;10160;50.926;4.374;2023-09-12T02:10:48;43.22;;;25.15;;
19998;SDS011;10160;50.926;4.374;2023-09-12T02:13:14;48.03;;;26.08;;
19998;SDS011;10160;50.926;4.374;2023-09-12T02:15:40;45.53;;;25.02;;
19998;SDS011;10160;50.926;4.374;2023-09-12T02:18:05;49.92;;;26.58;;
19998;SDS011;10160;50.926;4.374;2023-09-12T02:20:31;44.70;;;26.27;;
19998;SDS011;10160;50.926;4.374;2023-09-12T02:22:57;45.90;;;26.45;;
19998;SDS011;10160;50.926;4.374;2023-09-12T02:25:23;48.20;;;25.52;;
19998;SDS011;10160;50.926;4.374;2023-09-12T02:27:48;48.42;;;26.13;;
19998;SDS011;10160;50.926;4.374;2023-09-12T02:30:14;46.50;;;26.33;;
19998;SDS011;10160;50.926;4.374;2023-09-12T02:32:41;47.10;;;26.23;;
19998;SDS011;10160;50.926;4.374;2023-09-12T02:35:08;50.63;;;25.70;;
19998;SDS011;10160;50.926;4.374;2023-09-12T02:37:33;48.80;;;27.75;;
19998;SDS011;10160;50.926;4.374;2023-09-12T02:39:59;47.22;;;25.92;;
19998;SDS011;10160;50.926;4.374;2023-09-12T02:42:26;43.80;;;26.13;;
19998;SDS011;10160;50.926;4.374;2023-09-12T02:44:51;44.83;;;26.02;;
19998;SDS011;10160;50.926;4.374;2023-09-12T02:47:17;48.65;;;26.42;;
19998;SDS011;10160;50.926;4.374;2023-09-12T02:49:43;46.60;;;26.55;;
19998;SDS011;10160;50.926;4.374;2023-09-12T02:52:08;48.90;;;26.50;;
19998;SDS011;10160;50.926;4.374;2023-09-12T02:54:34;50.03;;;26.17;;
19998;SDS011;10160;50.926;4.374;2023-09-12T02:57:00;50.55;;;25.30;;
19998;SDS011;10160;50.926;4.374;2023-09-12T02:59:25;43.85;;;25.63;;
19998;SDS011;10160;50.926;4.374;2023-09-12T03:01:51;48.88;;;26.13;;
19998;SDS011;10160;50.926;4.374;2023-09-12T03:04:17;47.92;;;26.00;;
19998;SDS011;10160;50.926;4.374;2023-09-12T03:06:42;41.75;;;25.02;;
19998;SDS011;10160;50.926;4.374;2023-09-12T03:09:08;46.05;;;24.95;;
19998;SDS011;10160;50.926;4.374;2023-09-12T03:11:36;41.75;;;23.98;;
19998;SDS011;10160;50.926;4.374;2023-09-12T03:14:01;44.83;;;26.20;;
19998;SDS011;10160;50.926;4.374;2023-09-12T03:16:27;46.08;;;25.85;;
19998;SDS011;10160;50.926;4.374;2023-09-12T03:18:53;47.22;;;25.25;;
19998;SDS011;10160;50.926;4.374;2023-09-12T03:21:19;47.78;;;25.13;;
19998;SDS011;10160;50.926;4.374;2023-09-12T03:23:44;42.58;;;23.77;;
19998;SDS011;10160;50.926;4.374;2023-09-12T03:26:10;45.45;;;23.80;;
19998;SDS011;10160;50.926;4.374;2023-09-12T03:28:35;41.22;;;23.33;;
19998;SDS011;10160;50.926;4.374;2023-09-12T03:31:08;43.42;;;23.73;;
19998;SDS011;10160;50.926;4.374;2023-09-12T03:33:39;44.50;;;24.05;;
19998;SDS011;10160;50.926;4.374;2023-09-12T03:36:06;43.20;;;23.42;;
19998;SDS011;10160;50.926;4.374;2023-09-12T03:38:32;43.50;;;23.33;;
19998;SDS011;10160;50.926;4.374;2023-09-12T03:40:58;40.20;;;22.45;;
19998;SDS011;10160;50.926;4.374;2023-09-12T03:43:24;40.45;;;22.70;;
19998;SDS011;10160;50.926;4.374;2023-09-12T03:45:50;41.45;;;22.05;;
19998;SDS011;10160;50.926;4.374;2023-09-12T03:48:16;39.22;;;22.05;;
19998;SDS011;10160;50.926;4.374;2023-09-12T03:50:41;42.08;;;22.48;;
19998;SDS011;10160;50.926;4.374;2023-09-12T03:53:07;42.70;;;22.75;;
19998;SDS011;10160;50.926;4.374;2023-09-12T03:55:33;44.45;;;22.48;;
19998;SDS011;10160;50.926;4.374;2023-09-12T03:57:59;42.80;;;22.38;;
19998;SDS011;10160;50.926;4.374;2023-09-12T04:00:25;44.28;;;23.73;;
19998;SDS011;10160;50.926;4.374;2023-09-12T04:02:51;39.65;;;22.45;;
19998;SDS011;10160;50.926;4.374;2023-09-12T04:05:16;39.92;;;21.33;;
19998;SDS011;10160;50.926;4.374;2023-09-12T04:07:42;39.10;;;21.02;;
19998;SDS011;10160;50.926;4.374;2023-09-12T04:10:08;37.15;;;21.10;;
19998;SDS011;10160;50.926;4.374;2023-09-12T04:12:34;40.00;;;20.88;;
19998;SDS011;10160;50.926;4.374;2023-09-12T04:14:59;38.78;;;19.73;;
19998;SDS011;10160;50.926;4.374;2023-09-12T04:17:25;39.65;;;21.30;;
19998;SDS011;10160;50.926;4.374;2023-09-12T04:19:50;40.80;;;20.55;;
19998;SDS011;10160;50.926;4.374;2023-09-12T04:22:16;37.53;;;20.48;;
19998;SDS011;10160;50.926;4.374;2023-09-12T04:24:42;38.65;;;21.42;;
19998;SDS011;10160;50.926;4.374;2023-09-12T04:27:07;39.65;;;21.73;;
19998;SDS011;10160;50.926;4.374;2023-09-12T04:29:33;38.35;;;20.88;;
19998;SDS011;10160;50.926;4.374;2023-09-12T04:32:01;41.75;;;21.42;;
19998;SDS011;10160;50.926;4.374;2023-09-12T04:34:28;45.28;;;21.98;;
19998;SDS011;10160;50.926;4.374;2023-09-12T04:36:54;39.88;;;22.88;;
19998;SDS011;10160;50.926;4.374;2023-09-12T04:39:20;50.40;;;23.80;;
19998;SDS011;10160;50.926;4.374;2023-09-12T04:41:45;45.63;;;25.08;;
19998;SDS011;10160;50.926;4.374;2023-09-12T04:44:14;45.88;;;24.45;;
19998;SDS011;10160;50.926;4.374;2023-09-12T04:46:40;47.13;;;23.73;;
19998;SDS011;10160;50.926;4.374;2023-09-12T04:49:06;43.03;;;23.65;;
19998;SDS011;10160;50.926;4.374;2023-09-12T04:51:31;44.22;;;23.60;;
19998;SDS011;10160;50.926;4.374;2023-09-12T04:53:57;50.38;;;25.27;;
19998;SDS011;10160;50.926;4.374;2023-09-12T04:56:23;42.53;;;23.73;;
19998;SDS011;10160;50.926;4.374;2023-09-12T04:58:51;47.60;;;23.90;;
19998;SDS011;10160;50.926;4.374;2023-09-12T05:01:17;48.15;;;23.88;;
19998;SDS011;10160;50.926;4.374;2023-09-12T05:03:43;39.17;;;22.08;;
19998;SDS011;10160;50.926;4.374;2023-09-12T05:06:09;43.42;;;22.77;;
19998;SDS011;10160;50.926;4.374;2023-09-12T05:08:38;40.17;;;23.27;;
19998;SDS011;10160;50.926;4.374;2023-09-12T05:11:04;51.45;;;22.42;;
19998;SDS011;10160;50.926;4.374;2023-09-12T05:13:29;49.42;;;23.63;;
19998;SDS011;10160;50.926;4.374;2023-09-12T05:15:55;42.00;;;22.52;;
19998;SDS011;10160;50.926;4.374;2023-09-12T05:18:24;46.95;;;24.00;;
19998;SDS011;10160;50.926;4.374;2023-09-12T05:20:50;42.15;;;23.20;;
19998;SDS011;10160;50.926;4.374;2023-09-12T05:23:15;46.05;;;23.05;;
19998;SDS011;10160;50.926;4.374;2023-09-12T05:25:41;44.55;;;23.63;;
19998;SDS011;10160;50.926;4.374;2023-09-12T05:28:07;45.53;;;24.15;;
19998;SDS011;10160;50.926;4.374;2023-09-12T05:30:33;44.17;;;24.20;;
19998;SDS011;10160;50.926;4.374;2023-09-12T05:32:58;45.80;;;23.45;;
19998;SDS011;10160;50.926;4.374;2023-09-12T05:35:24;46.17;;;24.35;;
19998;SDS011;10160;50.926;4.374;2023-09-12T05:37:50;45.53;;;23.08;;
19998;SDS011;10160;50.926;4.374;2023-09-12T05:40:16;39.88;;;22.20;;
19998;SDS011;10160;50.926;4.374;2023-09-12T05:42:43;44.25;;;22.38;;
19998;SDS011;10160;50.926;4.374;2023-09-12T05:45:08;46.80;;;23.42;;
19998;SDS011;10160;50.926;4.374;2023-09-12T05:47:34;46.90;;;24.73;;
19998;SDS011;10160;50.926;4.374;2023-09-12T05:50:00;49.67;;;25.73;;
19998;SDS011;10160;50.926;4.374;2023-09-12T05:52:26;45.63;;;23.98;;
19998;SDS011;10160;50.926;4.374;2023-09-12T05:54:51;48.15;;;24.70;;
19998;SDS011;10160;50.926;4.374;2023-09-12T05:57:17;51.10;;;25.95;;
19998;SDS011;10160;50.926;4.374;2023-09-12T05:59:43;51.13;;;25.95;;
19998;SDS011;10160;50.926;4.374;2023-09-12T06:02:09;43.65;;;24.98;;
19998;SDS011;10160;50.926;4.374;2023-09-12T06:04:35;46.88;;;26.05;;
19998;SDS011;10160;50.926;4.374;2023-09-12T06:07:04;47.95;;;25.27;;
19998;SDS011;10160;50.926;4.374;2023-09-12T06:09:30;44.42;;;23.65;;
19998;SDS011;10160;50.926;4.374;2023-09-12T06:11:56;46.55;;;24.67;;
19998;SDS011;10160;50.926;4.374;2023-09-12T06:14:22;45.58;;;23.23;;
19998;SDS011;10160;50.926;4.374;2023-09-12T06:16:50;45.85;;;23.98;;
19998;SDS011;10160;50.926;4.374;2023-09-12T06:19:16;41.67;;;22.67;;
19998;SDS011;10160;50.926;4.374;2023-09-12T06:21:44;45.35;;;23.40;;
19998;SDS011;10160;50.926;4.374;2023-09-12T06:24:11;49.15;;;24.25;;
19998;SDS011;10160;50.926;4.374;2023-09-12T06:26:41;45.25;;;22.42;;
19998;SDS011;10160;50.926;4.374;2023-09-12T06:29:07;45.83;;;23.48;;
19998;SDS011;10160;50.926;4.374;2023-09-12T06:31:33;49.70;;;25.02;;
19998;SDS011;10160;50.926;4.374;2023-09-12T06:33:59;47.30;;;25.50;;
19998;SDS011;10160;50.926;4.374;2023-09-12T06:36:25;52.80;;;24.75;;
19998;SDS011;10160;50.926;4.374;2023-09-12T06:38:54;43.05;;;23.20;;
19998;SDS011;10160;50.926;4.374;2023-09-12T06:41:20;47.25;;;25.25;;
19998;SDS011;10160;50.926;4.374;2023-09-12T06:43:52;44.30;;;22.77;;
19998;SDS011;10160;50.926;4.374;2023-09-12T06:46:18;42.17;;;23.58;;
19998;SDS011;10160;50.926;4.374;2023-09-12T06:48:44;43.40;;;24.13;;
19998;SDS011;10160;50.926;4.374;2023-09-12T06:51:15;47.92;;;24.08;;
19998;SDS011;10160;50.926;4.374;2023-09-12T06:53:41;44.55;;;24.55;;
19998;SDS011;10160;50.926;4.374;2023-09-12T06:56:13;45.40;;;25.17;;
19998;SDS011;10160;50.926;4.374;2023-09-12T06:58:41;48.40;;;24.80;;
19998;SDS011;10160;50.926;4.374;2023-09-12T07:01:07;47.55;;;25.30;;
19998;SDS011;10160;50.926;4.374;2023-09-12T07:03:33;44.78;;;23.65;;
19998;SDS011;10160;50.926;4.374;2023-09-12T07:06:02;47.65;;;24.25;;
19998;SDS011;10160;50.926;4.374;2023-09-12T07:08:31;42.60;;;23.88;;
19998;SDS011;10160;50.926;4.374;2023-09-12T07:10:58;43.10;;;24.95;;
19998;SDS011;10160;50.926;4.374;2023-09-12T07:13:30;43.35;;;23.88;;
19998;SDS011;10160;50.926;4.374;2023-09-12T07:15:57;41.85;;;24.40;;
19998;SDS011;10160;50.926;4.374;2023-09-12T07:18:29;44.28;;;24.17;;
19998;SDS011;10160;50.926;4.374;2023-09-12T07:21:01;42.85;;;25.05;;
19998;SDS011;10160;50.926;4.374;2023-09-12T07:23:29;42.83;;;24.40;;
19998;SDS011;10160;50.926;4.374;2023-09-12T07:26:01;43.75;;;24.88;;
19998;SDS011;10160;50.926;4.374;2023-09-12T07:28:27;38.60;;;23.75;;
19998;SDS011;10160;50.926;4.374;2023-09-12T07:30:55;44.45;;;25.88;;
19998;SDS011;10160;50.926;4.374;2023-09-12T07:33:21;45.90;;;24.80;;
19998;SDS011;10160;50.926;4.374;2023-09-12T07:35:47;45.08;;;26.27;;
19998;SDS011;10160;50.926;4.374;2023-09-12T07:38:14;44.20;;;24.33;;
19998;SDS011;10160;50.926;4.374;2023-09-12T07:40:42;42.25;;;24.92;;
19998;SDS011;10160;50.926;4.374;2023-09-12T07:43:17;54.35;;;25.55;;
19998;SDS011;10160;50.926;4.374;2023-09-12T07:45:42;41.33;;;22.73;;
19998;SDS011;10160;50.926;4.374;2023-09-12T07:48:09;41.10;;;25.15;;
19998;SDS011;10160;50.926;4.374;2023-09-12T07:50:36;45.25;;;24.23;;
19998;SDS011;10160;50.926;4.374;2023-09-12T07:53:05;44.85;;;23.65;;
19998;SDS011;10160;50.926;4.374;2023-09-12T07:55:40;41.75;;;23.80;;
19998;SDS011;10160;50.926;4.374;2023-09-12T07:58:12;37.88;;;23.17;;
19998;SDS011;10160;50.926;4.374;2023-09-12T08:00:43;40.58;;;22.38;;
19998;SDS011;10160;50.926;4.374;2023-09-12T08:03:09;41.90;;;22.30;;
19998;SDS011;10160;50.926;4.374;2023-09-12T08:05:38;40.80;;;22.73;;
19998;SDS011;10160;50.926;4.374;2023-09-12T08:08:04;40.97;;;21.23;;
19998;SDS011;10160;50.926;4.374;2023-09-12T08:10:29;35.47;;;21.33;;
19998;SDS011;10160;50.926;4.374;2023-09-12T08:12:55;45.30;;;22.90;;
19998;SDS011;10160;50.926;4.374;2023-09-12T08:15:21;42.08;;;21.92;;
19998;SDS011;10160;50.926;4.374;2023-09-12T08:17:46;40.90;;;21.67;;
19998;SDS011;10160;50.926;4.374;2023-09-12T08:20:16;36.78;;;21.80;;
19998;SDS011;10160;50.926;4.374;2023-09-12T08:22:43;34.70;;;19.48;;
19998;SDS011;10160;50.926;4.374;2023-09-12T08:25:08;41.65;;;21.08;;
19998;SDS011;10160;50.926;4.374;2023-09-12T08:27:35;35.92;;;20.92;;
19998;SDS011;10160;50.926;4.374;2023-09-12T08:30:04;35.92;;;20.40;;
19998;SDS011;10160;50.926;4.374;2023-09-12T08:32:30;33.70;;;17.83;;
19998;SDS011;10160;50.926;4.374;2023-09-12T08:34:59;33.30;;;18.08;;
19998;SDS011;10160;50.926;4.374;2023-09-12T08:37:25;34.60;;;18.08;;
19998;SDS011;10160;50.926;4.374;2023-09-12T08:39:55;30.30;;;16.83;;
19998;SDS011;10160;50.926;4.374;2023-09-12T08:42:24;30.40;;;17.20;;
19998;SDS011;10160;50.926;4.374;2023-09-12T08:44:57;38.60;;;18.15;;
19998;SDS011;10160;50.926;4.374;2023-09-12T08:47:23;31.45;;;16.70;;
19998;SDS011;10160;50.926;4.374;2023-09-12T08:49:51;28.58;;;15.35;;
19998;SDS011;10160;50.926;4.374;2023-09-12T08:52:19;32.70;;;16.42;;
19998;SDS011;10160;50.926;4.374;2023-09-12T08:54:45;31.30;;;16.75;;
19998;SDS011;10160;50.926;4.374;2023-09-12T08:57:11;33.03;;;15.18;;
19998;SDS011;10160;50.926;4.374;2023-09-12T08:59:38;32.50;;;15.93;;
19998;SDS011;10160;50.926;4.374;2023-09-12T09:02:06;30.88;;;15.52;;
19998;SDS011;10160;50.926;4.374;2023-09-12T09:04:38;30.17;;;14.80;;
19998;SDS011;10160;50.926;4.374;2023-09-12T09:07:05;32.25;;;16.90;;
19998;SDS011;10160;50.926;4.374;2023-09-12T09:09:30;34.03;;;16.88;;
19998;SDS011;10160;50.926;4.374;2023-09-12T09:11:57;33.53;;;17.52;;
19998;SDS011;10160;50.926;4.374;2023-09-12T09:14:23;35.20;;;18.05;;
19998;SDS011;10160;50.926;4.374;2023-09-12T09:16:54;36.03;;;18.08;;
19998;SDS011;10160;50.926;4.374;2023-09-12T09:19:20;35.17;;;18.60;;
19998;SDS011;10160;50.926;4.374;2023-09-12T09:21:45;29.83;;;16.65;;
19998;SDS011;10160;50.926;4.374;2023-09-12T09:24:12;28.58;;;14.68;;
19998;SDS011;10160;50.926;4.374;2023-09-12T09:26:44;29.10;;;15.73;;
19998;SDS011;10160;50.926;4.374;2023-09-12T09:29:18;28.50;;;14.48;;
19998;SDS011;10160;50.926;4.374;2023-09-12T09:31:46;29.55;;;16.20;;
19998;SDS011;10160;50.926;4.374;2023-09-12T09:34:16;28.30;;;15.88;;
19998;SDS011;10160;50.926;4.374;2023-09-12T09:36:44;29.90;;;15.63;;
19998;SDS011;10160;50.926;4.374;2023-09-12T09:39:12;28.02;;;15.13;;
19998;SDS011;10160;50.926;4.374;2023-09-12T09:41:41;26.42;;;15.57;;
19998;SDS011;10160;50.926;4.374;2023-09-12T09:44:07;32.22;;;16.02;;
19998;SDS011;10160;50.926;4.374;2023-09-12T09:46:34;30.55;;;16.65;;
19998;SDS011;10160;50.926;4.374;2023-09-12T09:49:02;32.58;;;16.30;;
19998;SDS011;10160;50.926;4.374;2023-09-12T09:51:29;27.58;;;15.10;;
19998;SDS011;10160;50.926;4.374;2023-09-12T09:53:56;31.45;;;16.02;;
19998;SDS011;10160;50.926;4.374;2023-09-12T09:56:25;24.83;;;13.45;;
19998;SDS011;10160;50.926;4.374;2023-09-12T09:58:52;27.25;;;13.13;;
19998;SDS011;10160;50.926;4.374;2023-09-12T10:01:22;24.25;;;12.65;;
19998;SDS011;10160;50.926;4.374;2023-09-12T10:03:51;18.88;;;10.43;;
19998;SDS011;10160;50.926;4.374;2023-09-12T10:06:18;20.15;;;11.75;;
19998;SDS011;10160;50.926;4.374;2023-09-12T10:08:45;27.00;;;14.02;;
19998;SDS011;10160;50.926;4.374;2023-09-12T10:11:15;22.58;;;11.75;;
19998;SDS011;10160;50.926;4.374;2023-09-12T10:14:03;20.48;;;10.52;;
19998;SDS011;10160;50.926;4.374;2023-09-12T10:16:29;20.98;;;11.05;;
19998;SDS011;10160;50.926;4.374;2023-09-12T10:21:48;17.10;;;7.60;;
19998;SDS011;10160;50.926;4.374;2023-09-12T10:24:28;14.35;;;7.80;;
19998;SDS011;10160;50.926;4.374;2023-09-12T10:26:55;14.15;;;7.18;;
19998;SDS011;10160;50.926;4.374;2023-09-12T10:29:23;14.75;;;7.57;;
19998;SDS011;10160;50.926;4.374;2023-09-12T10:31:49;14.90;;;6.57;;
19998;SDS011;10160;50.926;4.374;2023-09-12T10:34:15;12.75;;;6.75;;
19998;SDS011;10160;50.926;4.374;2023-09-12T10:36:42;14.20;;;6.03;;
19998;SDS011;10160;50.926;4.374;2023-09-12T10:39:08;13.25;;;6.78;;
19998;SDS011;10160;50.926;4.374;2023-09-12T10:41:38;18.08;;;6.15;;
19998;SDS011;10160;50.926;4.374;2023-09-12T10:44:11;12.38;;;5.88;;
19998;SDS011;10160;50.926;4.374;2023-09-12T10:46:41;13.60;;;5.63;;
19998;SDS011;10160;50.926;4.374;2023-09-12T10:49:08;12.63;;;5.90;;
19998;SDS011;10160;50.926;4.374;2023-09-12T10:51:39;9.98;;;5.22;;
19998;SDS011;10160;50.926;4.374;2023-09-12T10:54:06;13.80;;;6.60;;
19998;SDS011;10160;50.926;4.374;2023-09-12T10:56:35;11.77;;;5.38;;
19998;SDS011;10160;50.926;4.374;2023-09-12T11:01:31;12.35;;;5.47;;
19998;SDS011;10160;50.926;4.374;2023-09-12T11:03:58;14.38;;;6.18;;
19998;SDS011;10160;50.926;4.374;2023-09-12T11:06:44;10.95;;;5.25;;
19998;SDS011;10160;50.926;4.374;2023-09-12T11:11:42;11.32;;;4.70;;
19998;SDS011;10160;50.926;4.374;2023-09-12T11:14:11;11.52;;;6.05;;
19998;SDS011;10160;50.926;4.374;2023-09-12T11:16:38;12.57;;;5.57;;
19998;SDS011;10160;50.926;4.374;2023-09-12T11:19:22;12.43;;;5.90;;
19998;SDS011;10160;50.926;4.374;2023-09-12T11:21:52;12.40;;;5.63;;
19998;SDS011;10160;50.926;4.374;2023-09-12T11:24:19;12.05;;;5.80;;
19998;SDS011;10160;50.926;4.374;2023-09-12T11:26:55;12.95;;;5.38;;
19998;SDS011;10160;50.926;4.374;2023-09-12T11:29:38;12.38;;;5.97;;
19998;SDS011;10160;50.926;4.374;2023-09-12T11:32:05;11.90;;;5.50;;
19998;SDS011;10160;50.926;4.374;2023-09-12T11:34:40;12.20;;;5.40;;
19998;SDS011;10160;50.926;4.374;2023-09-12T11:37:07;16.60;;;5.72;;
19998;SDS011;10160;50.926;4.374;2023-09-12T11:39:34;13.48;;;6.85;;
19998;SDS011;10160;50.926;4.374;2023-09-12T11:42:02;13.77;;;6.03;;
19998;SDS011;10160;50.926;4.374;2023-09-12T11:44:29;8.98;;;5.18;;
19998;SDS011;10160;50.926;4.374;2023-09-12T11:46:56;10.82;;;5.88;;
19998;SDS011;10160;50.926;4.374;2023-09-12T11:49:37;9.40;;;5.38;;
19998;SDS011;10160;50.926;4.374;2023-09-12T11:52:08;14.23;;;7.15;;
19998;SDS011;10160;50.926;4.374;2023-09-12T11:54:38;14.63;;;6.30;;
19998;SDS011;10160;50.926;4.374;2023-09-12T11:57:06;15.55;;;7.55;;
19998;SDS011;10160;50.926;4.374;2023-09-12T11:59:36;27.95;;;8.75;;
19998;SDS011;10160;50.926;4.374;2023-09-12T12:02:05;12.45;;;6.25;;
19998;SDS011;10160;50.926;4.374;2023-09-12T12:04:34;18.55;;;9.13;;
19998;SDS011;10160;50.926;4.374;2023-09-12T12:07:03;11.95;;;6.43;;
19998;SDS011;10160;50.926;4.374;2023-09-12T12:09:30;11.13;;;5.82;;
19998;SDS011;10160;50.926;4.374;2023-09-12T12:11:56;11.77;;;5.53;;
19998;SDS011;10160;50.926;4.374;2023-09-12T12:14:25;14.15;;;6.55;;
19998;SDS011;10160;50.926;4.374;2023-09-12T12:16:51;11.60;;;5.63;;
19998;SDS011;10160;50.926;4.374;2023-09-12T12:19:18;10.93;;;5.85;;
19998;SDS011;10160;50.926;4.374;2023-09-12T12:21:43;11.07;;;5.75;;
19998;SDS011;10160;50.926;4.374;2023-09-12T12:24:11;11.48;;;6.35;;
19998;SDS011;10160;50.926;4.374;2023-09-12T12:26:41;14.60;;;6.63;;
19998;SDS011;10160;50.926;4.374;2023-09-12T12:29:08;10.88;;;6.07;;
19998;SDS011;10160;50.926;4.374;2023-09-12T12:31:35;11.48;;;5.80;;
19998;SDS011;10160;50.926;4.374;2023-09-12T12:34:01;14.88;;;5.25;;
19998;SDS011;10160;50.926;4.374;2023-09-12T12:36:28;10.25;;;5.38;;
19998;SDS011;10160;50.926;4.374;2023-09-12T12:38:54;13.48;;;6.00;;
19998;SDS011;10160;50.926;4.374;2023-09-12T12:41:24;11.27;;;5.28;;
19998;SDS011;10160;50.926;4.374;2023-09-12T12:43:56;15.35;;;5.95;;
19998;SDS011;10160;50.926;4.374;2023-09-12T12:46:25;12.75;;;6.03;;
19998;SDS011;10160;50.926;4.374;2023-09-12T12:48:51;9.77;;;5.78;;
19998;SDS011;10160;50.926;4.374;2023-09-12T12:51:21;9.52;;;5.75;;
19998;SDS011;10160;50.926;4.374;2023-09-12T12:53:49;13.40;;;6.25;;
19998;SDS011;10160;50.926;4.374;2023-09-12T12:56:20;11.45;;;6.40;;
19998;SDS011;10160;50.926;4.374;2023-09-12T12:58:48;10.23;;;6.28;;
19998;SDS011;10160;50.926;4.374;2023-09-12T13:01:15;10.25;;;6.03;;
19998;SDS011;10160;50.926;4.374;2023-09-12T13:03:41;10.88;;;5.65;;
19998;SDS011;10160;50.926;4.374;2023-09-12T13:06:07;12.13;;;5.75;;
19998;SDS011;10160;50.926;4.374;2023-09-12T13:08:38;14.65;;;6.07;;
19998;SDS011;10160;50.926;4.374;2023-09-12T13:11:07;10.75;;;5.78;;
19998;SDS011;10160;50.926;4.374;2023-09-12T13:13:34;10.65;;;5.50;;
19998;SDS011;10160;50.926;4.374;2023-09-12T13:16:01;13.40;;;7.00;;
19998;SDS011;10160;50.926;4.374;2023-09-12T13:18:29;15.13;;;7.78;;
19998;SDS011;10160;50.926;4.374;2023-09-12T13:20:58;15.80;;;8.05;;
19998;SDS011;10160;50.926;4.374;2023-09-12T13:23:24;13.70;;;7.88;;
19998;SDS011;10160;50.926;4.374;2023-09-12T13:25:51;16.38;;;8.18;;
19998;SDS011;10160;50.926;4.374;2023-09-12T13:28:19;19.50;;;8.48;;
19998;SDS011;10160;50.926;4.374;2023-09-12T13:30:45;16.92;;;8.90;;
19998;SDS011;10160;50.926;4.374;2023-09-12T13:33:14;16.25;;;9.15;;
19998;SDS011;10160;50.926;4.374;2023-09-12T13:35:40;18.05;;;9.50;;
19998;SDS011;10160;50.926;4.374;2023-09-12T13:38:06;16.67;;;8.95;;
19998;SDS011;10160;50.926;4.374;2023-09-12T13:40:40;16.85;;;7.78;;
19998;SDS011;10160;50.926;4.374;2023-09-12T13:43:07;15.68;;;8.75;;
19998;SDS011;10160;50.926;4.374;2023-09-12T13:45:33;13.57;;;8.35;;
19998;SDS011;10160;50.926;4.374;2023-09-12T13:48:00;14.80;;;7.65;;
19998;SDS011;10160;50.926;4.374;2023-09-12T13:50:26;15.65;;;8.82;;
19998;SDS011;10160;50.926;4.374;2023-09-12T13:52:59;15.25;;;8.88;;
19998;SDS011;10160;50.926;4.374;2023-09-12T13:55:35;15.75;;;7.97;;
19998;SDS011;10160;50.926;4.374;2023-09-12T13:58:10;17.33;;;9.25;;
19998;SDS011;10160;50.926;4.374;2023-09-12T14:00:36;13.90;;;8.68;;
19998;SDS011;10160;50.926;4.374;2023-09-12T14:03:02;16.13;;;8.23;;
19998;SDS011;10160;50.926;4.374;2023-09-12T14:05:28;13.85;;;8.65;;
19998;SDS011;10160;50.926;4.374;2023-09-12T14:07:54;18.15;;;9.27;;
19998;SDS011;10160;50.926;4.374;2023-09-12T14:10:19;16.40;;;9.38;;
19998;SDS011;10160;50.926;4.374;2023-09-12T14:12:45;15.77;;;8.13;;
19998;SDS011;10160;50.926;4.374;2023-09-12T14:15:14;15.00;;;8.65;;
19998;SDS011;10160;50.926;4.374;2023-09-12T14:17:40;16.45;;;8.15;;
19998;SDS011;10160;50.926;4.374;2023-09-12T14:20:06;14.45;;;7.97;;
19998;SDS011;10160;50.926;4.374;2023-09-12T14:22:40;16.15;;;8.10;;
19998;SDS011;10160;50.926;4.374;2023-09-12T14:25:08;14.20;;;8.18;;
19998;SDS011;10160;50.926;4.374;2023-09-12T14:27:39;14.68;;;8.10;;
19998;SDS011;10160;50.926;4.374;2023-09-12T14:30:08;16.52;;;8.18;;
19998;SDS011;10160;50.926;4.374;2023-09-12T14:32:35;13.48;;;7.07;;
19998;SDS011;10160;50.926;4.374;2023-09-12T14:35:01;16.88;;;7.93;;
19998;SDS011;10160;50.926;4.374;2023-09-12T14:37:26;10.63;;;6.78;;
19998;SDS011;10160;50.926;4.374;2023-09-12T14:39:53;14.43;;;7.05;;